マナウス の空港の天気 - METARとTAF

エドワルド ゴメス国際空港(マナウス) ( SBEG / MAO ) - ブラジル アマゾナス州マナウス
飛行場実況気象(Metar)
観測時間09/22 19:00 AMT (09/22 23:00 UTC)
風向・風速北西 2m/s
視程10km以上
天気現象
なし
気温27℃
湿度79%
気圧1008hPa
METARSBEG 222300Z 32003KT CAVOK 27/23 Q1008
過去の天気等 Google飛行場航空写真 Wunderground天気予報

過去48時間のMETAR

飛行場予報(TAF)
発表時間: 9/22 17:00 AMT (9/22 21:00 UTC)
予報対象時間: 22日20時 AMT ~ 23日20時 AMT
風向・風速北西 3m/s
視程10km以上
少しの雲 雲底高度 610m
22日20時 AMT から 確率 30% で
風向・風速東 5m/s
視程7000m
天気現象
全天の4割程度の雲 雲底高度 520m
少しの積乱雲 雲底高度 760m
23日2時 AMT ~ 23日4時 AMT に徐々に
全天の4割程度の雲 雲底高度 370m
23日4時 AMT から 確率 40% で
視程4000m
天気現象もや
全天の8割程度の雲 雲底高度 300m
23日9時 AMT ~ 23日11時 AMT に徐々に
風向・風速東北東 4m/s
視程8000m
全天の4割程度の雲 雲底高度 610m
23日11時 AMT ~ 23日14時 AMT に徐々に
風向・風速北 5m/s
全天の8割程度の雲 雲底高度 760m
少しの塔状積雲 雲底高度 1070m
23日14時 AMT ~ 23日18時 AMT に一時的に
風向・風速西南西 8m/s
視程5000m
天気現象雷雨
全天の8割程度の雲 雲底高度 460m
少しの積乱雲 雲底高度 760m
23日18時 AMT ~ 23日20時 AMT に徐々に
風向・風速東北東 4m/s
視程10km以上
少しの雲 雲底高度 610m
TAF SBEG 222100Z 2300/2324 31005KT 9999 FEW020 TN24/2310Z TX34/2318Z
PROB30 2300/2302 08010KT 7000 TS SCT017 FEW025CB
BECMG 2306/2308 SCT012
PROB40 2308/2312 4000 BR BKN010
BECMG 2313/2315 06007KT 8000 SCT020
BECMG 2315/2318 35010KT BKN025 FEW035TCU
TEMPO 2318/2322 25015KT 5000 TSRA BKN015 FEW025CB
BECMG 2322/2324 06007KT 9999 FEW020 RMK PHN